Terminal Aerodrome Forecast
Issued by NWS Memphis, TN

Home | Current Version | Previous Version | Text Only | Print | Product List | Glossary On
Versions: 1 2 3 4 5 6 7 8 9
000
FTUS44 KMEG 280303 AAA
TAFMKL
TAF AMD
KMKL 280303Z 2803/2824 34010KT 3SM -RA BR OVC005
     FM281800 36006KT P6SM VCSH BKN015 BKN025=

USA.gov is the U.S. government's official web portal to all federal, state and local government web resources and services.